sensor_id;sensor_type;location;lat;lon;timestamp;P1;durP1;ratioP1;P2;durP2;ratioP2
28834;SDS011;15969;51.536;11.884;2022-12-18T00:01:18;64.97;;;32.95;;
28834;SDS011;15969;51.536;11.884;2022-12-18T00:03:51;64.22;;;33.78;;
28834;SDS011;15969;51.536;11.884;2022-12-18T00:06:18;58.88;;;31.73;;
28834;SDS011;15969;51.536;11.884;2022-12-18T00:08:45;62.85;;;32.85;;
28834;SDS011;15969;51.536;11.884;2022-12-18T00:11:12;53.40;;;30.55;;
28834;SDS011;15969;51.536;11.884;2022-12-18T00:13:43;60.60;;;31.92;;
28834;SDS011;15969;51.536;11.884;2022-12-18T00:16:10;58.97;;;32.90;;
28834;SDS011;15969;51.536;11.884;2022-12-18T00:18:39;61.47;;;32.83;;
28834;SDS011;15969;51.536;11.884;2022-12-18T00:21:06;56.92;;;30.48;;
28834;SDS011;15969;51.536;11.884;2022-12-18T00:23:35;63.20;;;32.45;;
28834;SDS011;15969;51.536;11.884;2022-12-18T00:26:02;63.92;;;32.58;;
28834;SDS011;15969;51.536;11.884;2022-12-18T00:28:36;54.38;;;30.00;;
28834;SDS011;15969;51.536;11.884;2022-12-18T00:31:09;59.93;;;31.53;;
28834;SDS011;15969;51.536;11.884;2022-12-18T00:33:40;59.17;;;30.95;;
28834;SDS011;15969;51.536;11.884;2022-12-18T00:36:07;60.43;;;32.57;;
28834;SDS011;15969;51.536;11.884;2022-12-18T00:38:39;56.70;;;30.55;;
28834;SDS011;15969;51.536;11.884;2022-12-18T00:41:05;62.28;;;32.15;;
28834;SDS011;15969;51.536;11.884;2022-12-18T00:43:32;62.65;;;31.00;;
28834;SDS011;15969;51.536;11.884;2022-12-18T00:45:58;61.30;;;32.00;;
28834;SDS011;15969;51.536;11.884;2022-12-18T00:48:23;65.33;;;32.03;;
28834;SDS011;15969;51.536;11.884;2022-12-18T00:50:49;54.90;;;31.90;;
28834;SDS011;15969;51.536;11.884;2022-12-18T00:53:16;59.80;;;31.02;;
28834;SDS011;15969;51.536;11.884;2022-12-18T00:55:42;60.78;;;31.45;;
28834;SDS011;15969;51.536;11.884;2022-12-18T00:58:09;57.45;;;31.27;;
28834;SDS011;15969;51.536;11.884;2022-12-18T01:00:36;62.92;;;32.28;;
28834;SDS011;15969;51.536;11.884;2022-12-18T01:03:02;58.85;;;30.33;;
28834;SDS011;15969;51.536;11.884;2022-12-18T01:05:29;54.42;;;29.38;;
28834;SDS011;15969;51.536;11.884;2022-12-18T01:07:55;58.23;;;31.43;;
28834;SDS011;15969;51.536;11.884;2022-12-18T01:10:22;53.08;;;30.58;;
28834;SDS011;15969;51.536;11.884;2022-12-18T01:12:48;57.88;;;29.67;;
28834;SDS011;15969;51.536;11.884;2022-12-18T01:15:15;56.95;;;29.85;;
28834;SDS011;15969;51.536;11.884;2022-12-18T01:17:41;59.17;;;31.58;;
28834;SDS011;15969;51.536;11.884;2022-12-18T01:20:08;66.35;;;31.65;;
28834;SDS011;15969;51.536;11.884;2022-12-18T01:22:36;59.42;;;32.00;;
28834;SDS011;15969;51.536;11.884;2022-12-18T01:25:02;57.03;;;30.50;;
28834;SDS011;15969;51.536;11.884;2022-12-18T01:27:29;62.85;;;30.73;;
28834;SDS011;15969;51.536;11.884;2022-12-18T01:29:55;55.72;;;30.65;;
28834;SDS011;15969;51.536;11.884;2022-12-18T01:32:21;57.30;;;30.55;;
28834;SDS011;15969;51.536;11.884;2022-12-18T01:34:47;62.23;;;29.20;;
28834;SDS011;15969;51.536;11.884;2022-12-18T01:37:13;55.70;;;30.10;;
28834;SDS011;15969;51.536;11.884;2022-12-18T01:39:39;54.80;;;30.13;;
28834;SDS011;15969;51.536;11.884;2022-12-18T01:42:09;60.03;;;30.33;;
28834;SDS011;15969;51.536;11.884;2022-12-18T01:47:39;57.30;;;29.85;;
28834;SDS011;15969;51.536;11.884;2022-12-18T01:50:20;60.88;;;27.38;;
28834;SDS011;15969;51.536;11.884;2022-12-18T01:52:55;54.38;;;28.65;;
28834;SDS011;15969;51.536;11.884;2022-12-18T01:55:25;56.13;;;27.60;;
28834;SDS011;15969;51.536;11.884;2022-12-18T01:57:55;58.03;;;29.02;;
28834;SDS011;15969;51.536;11.884;2022-12-18T02:00:24;56.63;;;28.95;;
28834;SDS011;15969;51.536;11.884;2022-12-18T02:02:51;54.15;;;27.80;;
28834;SDS011;15969;51.536;11.884;2022-12-18T02:05:18;51.53;;;27.80;;
28834;SDS011;15969;51.536;11.884;2022-12-18T02:10:58;48.65;;;27.42;;
28834;SDS011;15969;51.536;11.884;2022-12-18T02:16:32;58.83;;;29.08;;
28834;SDS011;15969;51.536;11.884;2022-12-18T02:19:20;54.55;;;28.17;;
28834;SDS011;15969;51.536;11.884;2022-12-18T02:28:14;48.83;;;27.35;;
28834;SDS011;15969;51.536;11.884;2022-12-18T02:30:44;57.35;;;28.15;;
28834;SDS011;15969;51.536;11.884;2022-12-18T02:33:13;48.55;;;26.70;;
28834;SDS011;15969;51.536;11.884;2022-12-18T02:35:40;49.10;;;26.98;;
28834;SDS011;15969;51.536;11.884;2022-12-18T02:38:07;48.53;;;26.38;;
28834;SDS011;15969;51.536;11.884;2022-12-18T02:40:34;53.70;;;28.33;;
28834;SDS011;15969;51.536;11.884;2022-12-18T02:43:08;50.42;;;26.95;;
28834;SDS011;15969;51.536;11.884;2022-12-18T02:45:45;49.55;;;27.60;;
28834;SDS011;15969;51.536;11.884;2022-12-18T02:48:13;53.88;;;27.20;;
28834;SDS011;15969;51.536;11.884;2022-12-18T02:50:41;51.58;;;28.38;;
28834;SDS011;15969;51.536;11.884;2022-12-18T02:56:21;49.85;;;27.17;;
28834;SDS011;15969;51.536;11.884;2022-12-18T02:59:17;52.65;;;26.77;;
28834;SDS011;15969;51.536;11.884;2022-12-18T03:01:54;58.40;;;27.63;;
28834;SDS011;15969;51.536;11.884;2022-12-18T03:04:38;49.58;;;27.80;;
28834;SDS011;15969;51.536;11.884;2022-12-18T03:07:10;49.03;;;26.58;;
28834;SDS011;15969;51.536;11.884;2022-12-18T03:09:44;56.25;;;28.73;;
28834;SDS011;15969;51.536;11.884;2022-12-18T03:12:23;51.55;;;26.60;;
28834;SDS011;15969;51.536;11.884;2022-12-18T03:15:08;54.47;;;28.35;;
28834;SDS011;15969;51.536;11.884;2022-12-18T03:17:45;46.88;;;26.48;;
28834;SDS011;15969;51.536;11.884;2022-12-18T03:20:18;50.90;;;25.85;;
28834;SDS011;15969;51.536;11.884;2022-12-18T03:22:47;50.75;;;26.70;;
28834;SDS011;15969;51.536;11.884;2022-12-18T03:25:20;51.15;;;26.98;;
28834;SDS011;15969;51.536;11.884;2022-12-18T03:27:49;50.47;;;26.55;;
28834;SDS011;15969;51.536;11.884;2022-12-18T03:30:21;48.17;;;26.95;;
28834;SDS011;15969;51.536;11.884;2022-12-18T03:33:04;47.53;;;26.33;;
28834;SDS011;15969;51.536;11.884;2022-12-18T03:35:35;51.80;;;26.23;;
28834;SDS011;15969;51.536;11.884;2022-12-18T03:38:06;53.70;;;25.48;;
28834;SDS011;15969;51.536;11.884;2022-12-18T03:41:19;53.50;;;27.48;;
28834;SDS011;15969;51.536;11.884;2022-12-18T03:46:20;45.60;;;25.40;;
28834;SDS011;15969;51.536;11.884;2022-12-18T03:49:01;47.20;;;24.98;;
28834;SDS011;15969;51.536;11.884;2022-12-18T03:51:47;50.00;;;26.65;;
28834;SDS011;15969;51.536;11.884;2022-12-18T03:54:19;51.88;;;24.75;;
28834;SDS011;15969;51.536;11.884;2022-12-18T03:56:47;51.53;;;25.92;;
28834;SDS011;15969;51.536;11.884;2022-12-18T03:59:19;49.05;;;24.38;;
28834;SDS011;15969;51.536;11.884;2022-12-18T04:01:47;50.63;;;25.83;;
28834;SDS011;15969;51.536;11.884;2022-12-18T04:04:15;58.53;;;29.02;;
28834;SDS011;15969;51.536;11.884;2022-12-18T04:06:42;57.55;;;27.92;;
28834;SDS011;15969;51.536;11.884;2022-12-18T04:09:10;59.58;;;26.27;;
28834;SDS011;15969;51.536;11.884;2022-12-18T04:11:36;56.92;;;26.95;;
28834;SDS011;15969;51.536;11.884;2022-12-18T04:14:02;56.30;;;28.27;;
28834;SDS011;15969;51.536;11.884;2022-12-18T04:16:27;53.27;;;26.10;;
28834;SDS011;15969;51.536;11.884;2022-12-18T04:18:53;57.87;;;27.67;;
28834;SDS011;15969;51.536;11.884;2022-12-18T04:21:19;70.87;;;30.03;;
28834;SDS011;15969;51.536;11.884;2022-12-18T04:23:45;57.75;;;27.83;;
28834;SDS011;15969;51.536;11.884;2022-12-18T04:26:10;61.60;;;27.03;;
28834;SDS011;15969;51.536;11.884;2022-12-18T04:28:36;69.53;;;28.03;;
28834;SDS011;15969;51.536;11.884;2022-12-18T04:31:03;56.63;;;26.90;;
28834;SDS011;15969;51.536;11.884;2022-12-18T04:33:29;60.47;;;27.77;;
28834;SDS011;15969;51.536;11.884;2022-12-18T04:35:55;58.30;;;27.17;;
28834;SDS011;15969;51.536;11.884;2022-12-18T04:38:20;56.77;;;26.40;;
28834;SDS011;15969;51.536;11.884;2022-12-18T04:40:46;56.83;;;26.33;;
28834;SDS011;15969;51.536;11.884;2022-12-18T04:43:11;59.87;;;26.93;;
28834;SDS011;15969;51.536;11.884;2022-12-18T04:45:37;65.33;;;27.13;;
28834;SDS011;15969;51.536;11.884;2022-12-18T04:48:02;58.33;;;27.03;;
28834;SDS011;15969;51.536;11.884;2022-12-18T04:50:29;51.45;;;25.60;;
28834;SDS011;15969;51.536;11.884;2022-12-18T04:52:55;47.53;;;26.33;;
28834;SDS011;15969;51.536;11.884;2022-12-18T04:55:21;50.00;;;27.30;;
28834;SDS011;15969;51.536;11.884;2022-12-18T04:57:49;66.40;;;27.75;;
28834;SDS011;15969;51.536;11.884;2022-12-18T05:00:15;54.07;;;24.83;;
28834;SDS011;15969;51.536;11.884;2022-12-18T05:02:41;56.10;;;25.83;;
28834;SDS011;15969;51.536;11.884;2022-12-18T05:05:06;52.60;;;26.10;;
28834;SDS011;15969;51.536;11.884;2022-12-18T05:07:32;51.20;;;26.40;;
28834;SDS011;15969;51.536;11.884;2022-12-18T05:09:58;48.10;;;24.00;;
28834;SDS011;15969;51.536;11.884;2022-12-18T05:12:24;50.20;;;26.13;;
28834;SDS011;15969;51.536;11.884;2022-12-18T05:14:49;44.90;;;23.97;;
28834;SDS011;15969;51.536;11.884;2022-12-18T05:17:15;49.67;;;24.43;;
28834;SDS011;15969;51.536;11.884;2022-12-18T05:19:40;52.17;;;26.17;;
28834;SDS011;15969;51.536;11.884;2022-12-18T05:22:06;47.57;;;25.47;;
28834;SDS011;15969;51.536;11.884;2022-12-18T05:24:31;45.40;;;24.10;;
28834;SDS011;15969;51.536;11.884;2022-12-18T05:26:57;49.90;;;23.60;;
28834;SDS011;15969;51.536;11.884;2022-12-18T05:29:23;51.80;;;23.57;;
28834;SDS011;15969;51.536;11.884;2022-12-18T05:31:48;52.27;;;23.77;;
28834;SDS011;15969;51.536;11.884;2022-12-18T05:34:14;62.80;;;27.10;;
28834;SDS011;15969;51.536;11.884;2022-12-18T05:36:39;52.47;;;25.73;;
28834;SDS011;15969;51.536;11.884;2022-12-18T05:39:05;53.77;;;25.67;;
28834;SDS011;15969;51.536;11.884;2022-12-18T05:41:31;46.10;;;24.38;;
28834;SDS011;15969;51.536;11.884;2022-12-18T05:43:57;49.10;;;23.73;;
28834;SDS011;15969;51.536;11.884;2022-12-18T05:46:23;50.42;;;24.05;;
28834;SDS011;15969;51.536;11.884;2022-12-18T05:48:49;48.43;;;23.87;;
28834;SDS011;15969;51.536;11.884;2022-12-18T05:51:16;48.72;;;24.08;;
28834;SDS011;15969;51.536;11.884;2022-12-18T05:53:43;49.00;;;25.02;;
28834;SDS011;15969;51.536;11.884;2022-12-18T05:56:11;44.23;;;23.37;;
28834;SDS011;15969;51.536;11.884;2022-12-18T05:58:38;46.13;;;23.42;;
28834;SDS011;15969;51.536;11.884;2022-12-18T06:01:17;42.30;;;23.70;;
28834;SDS011;15969;51.536;11.884;2022-12-18T06:03:50;37.75;;;21.02;;
28834;SDS011;15969;51.536;11.884;2022-12-18T06:06:19;38.23;;;21.03;;
28834;SDS011;15969;51.536;11.884;2022-12-18T06:08:47;43.03;;;22.08;;
28834;SDS011;15969;51.536;11.884;2022-12-18T06:11:15;39.72;;;21.30;;
28834;SDS011;15969;51.536;11.884;2022-12-18T06:13:42;38.45;;;20.02;;
28834;SDS011;15969;51.536;11.884;2022-12-18T06:16:07;46.40;;;22.17;;
28834;SDS011;15969;51.536;11.884;2022-12-18T06:18:33;35.80;;;20.70;;
28834;SDS011;15969;51.536;11.884;2022-12-18T06:20:59;37.65;;;21.15;;
28834;SDS011;15969;51.536;11.884;2022-12-18T06:23:25;32.77;;;18.83;;
28834;SDS011;15969;51.536;11.884;2022-12-18T06:25:51;36.25;;;19.60;;
28834;SDS011;15969;51.536;11.884;2022-12-18T06:28:17;33.93;;;18.30;;
28834;SDS011;15969;51.536;11.884;2022-12-18T06:30:43;33.63;;;19.33;;
28834;SDS011;15969;51.536;11.884;2022-12-18T06:33:09;31.33;;;18.73;;
28834;SDS011;15969;51.536;11.884;2022-12-18T06:35:35;37.33;;;18.93;;
28834;SDS011;15969;51.536;11.884;2022-12-18T06:38:01;39.57;;;17.40;;
28834;SDS011;15969;51.536;11.884;2022-12-18T06:40:27;32.10;;;17.13;;
28834;SDS011;15969;51.536;11.884;2022-12-18T06:42:53;32.07;;;18.47;;
28834;SDS011;15969;51.536;11.884;2022-12-18T06:45:18;28.80;;;17.80;;
28834;SDS011;15969;51.536;11.884;2022-12-18T06:47:44;29.00;;;18.00;;
28834;SDS011;15969;51.536;11.884;2022-12-18T06:50:09;46.67;;;21.07;;
28834;SDS011;15969;51.536;11.884;2022-12-18T06:52:35;65.90;;;25.58;;
28834;SDS011;15969;51.536;11.884;2022-12-18T06:55:02;43.70;;;21.38;;
28834;SDS011;15969;51.536;11.884;2022-12-18T06:57:28;43.30;;;20.95;;
28834;SDS011;15969;51.536;11.884;2022-12-18T06:59:53;48.03;;;22.07;;
28834;SDS011;15969;51.536;11.884;2022-12-18T07:02:19;73.20;;;26.80;;
28834;SDS011;15969;51.536;11.884;2022-12-18T07:04:44;80.00;;;29.80;;
28834;SDS011;15969;51.536;11.884;2022-12-18T07:07:10;69.80;;;26.57;;
28834;SDS011;15969;51.536;11.884;2022-12-18T07:09:35;57.07;;;24.17;;
28834;SDS011;15969;51.536;11.884;2022-12-18T07:12:01;67.73;;;24.50;;
28834;SDS011;15969;51.536;11.884;2022-12-18T07:14:27;63.23;;;25.77;;
28834;SDS011;15969;51.536;11.884;2022-12-18T07:16:52;73.93;;;27.40;;
28834;SDS011;15969;51.536;11.884;2022-12-18T07:19:18;55.07;;;23.30;;
28834;SDS011;15969;51.536;11.884;2022-12-18T07:21:43;51.30;;;23.73;;
28834;SDS011;15969;51.536;11.884;2022-12-18T07:24:09;52.50;;;23.10;;
28834;SDS011;15969;51.536;11.884;2022-12-18T07:26:34;45.80;;;21.43;;
28834;SDS011;15969;51.536;11.884;2022-12-18T07:29:00;51.43;;;21.27;;
28834;SDS011;15969;51.536;11.884;2022-12-18T07:31:26;43.30;;;21.30;;
28834;SDS011;15969;51.536;11.884;2022-12-18T07:33:52;43.45;;;19.77;;
28834;SDS011;15969;51.536;11.884;2022-12-18T07:36:18;44.33;;;19.37;;
28834;SDS011;15969;51.536;11.884;2022-12-18T07:38:46;47.80;;;21.17;;
28834;SDS011;15969;51.536;11.884;2022-12-18T07:41:13;44.33;;;20.58;;
28834;SDS011;15969;51.536;11.884;2022-12-18T07:43:39;41.45;;;20.00;;
28834;SDS011;15969;51.536;11.884;2022-12-18T07:46:06;44.63;;;19.83;;
28834;SDS011;15969;51.536;11.884;2022-12-18T07:48:33;36.00;;;18.23;;
28834;SDS011;15969;51.536;11.884;2022-12-18T07:50:59;35.87;;;19.63;;
28834;SDS011;15969;51.536;11.884;2022-12-18T07:53:26;43.05;;;18.73;;
28834;SDS011;15969;51.536;11.884;2022-12-18T07:55:58;41.33;;;19.47;;
28834;SDS011;15969;51.536;11.884;2022-12-18T07:58:25;41.17;;;18.60;;
28834;SDS011;15969;51.536;11.884;2022-12-18T08:00:51;39.93;;;18.10;;
28834;SDS011;15969;51.536;11.884;2022-12-18T08:03:17;39.23;;;19.23;;
28834;SDS011;15969;51.536;11.884;2022-12-18T08:05:43;43.17;;;19.50;;
28834;SDS011;15969;51.536;11.884;2022-12-18T08:08:08;38.20;;;18.43;;
28834;SDS011;15969;51.536;11.884;2022-12-18T08:10:34;38.80;;;18.80;;
28834;SDS011;15969;51.536;11.884;2022-12-18T08:12:59;35.30;;;16.97;;
28834;SDS011;15969;51.536;11.884;2022-12-18T08:15:25;36.30;;;17.77;;
28834;SDS011;15969;51.536;11.884;2022-12-18T08:17:50;32.30;;;17.33;;
28834;SDS011;15969;51.536;11.884;2022-12-18T08:20:16;40.00;;;19.50;;
28834;SDS011;15969;51.536;11.884;2022-12-18T08:22:43;33.70;;;18.42;;
28834;SDS011;15969;51.536;11.884;2022-12-18T08:25:09;33.97;;;18.23;;
28834;SDS011;15969;51.536;11.884;2022-12-18T08:27:34;35.53;;;16.83;;
28834;SDS011;15969;51.536;11.884;2022-12-18T08:30:00;41.27;;;18.43;;
28834;SDS011;15969;51.536;11.884;2022-12-18T08:32:27;34.37;;;17.57;;
28834;SDS011;15969;51.536;11.884;2022-12-18T08:34:52;29.45;;;16.88;;
28834;SDS011;15969;51.536;11.884;2022-12-18T08:37:18;33.57;;;17.53;;
28834;SDS011;15969;51.536;11.884;2022-12-18T08:39:43;29.13;;;16.57;;
28834;SDS011;15969;51.536;11.884;2022-12-18T08:42:09;34.07;;;17.40;;
28834;SDS011;15969;51.536;11.884;2022-12-18T08:44:54;33.65;;;18.33;;
28834;SDS011;15969;51.536;11.884;2022-12-18T08:47:19;32.27;;;17.27;;
28834;SDS011;15969;51.536;11.884;2022-12-18T08:49:45;37.87;;;18.60;;
28834;SDS011;15969;51.536;11.884;2022-12-18T08:52:10;31.00;;;16.47;;
28834;SDS011;15969;51.536;11.884;2022-12-18T08:54:36;33.13;;;18.60;;
28834;SDS011;15969;51.536;11.884;2022-12-18T08:57:01;37.80;;;19.37;;
28834;SDS011;15969;51.536;11.884;2022-12-18T08:59:27;32.87;;;18.37;;
28834;SDS011;15969;51.536;11.884;2022-12-18T09:01:53;32.90;;;18.80;;
28834;SDS011;15969;51.536;11.884;2022-12-18T09:04:19;32.22;;;18.50;;
28834;SDS011;15969;51.536;11.884;2022-12-18T09:06:45;34.10;;;19.10;;
28834;SDS011;15969;51.536;11.884;2022-12-18T09:09:10;36.10;;;18.23;;
28834;SDS011;15969;51.536;11.884;2022-12-18T09:11:36;33.20;;;18.13;;
28834;SDS011;15969;51.536;11.884;2022-12-18T09:14:02;31.80;;;18.03;;
28834;SDS011;15969;51.536;11.884;2022-12-18T09:16:28;34.13;;;19.27;;
28834;SDS011;15969;51.536;11.884;2022-12-18T09:18:54;40.05;;;19.95;;
28834;SDS011;15969;51.536;11.884;2022-12-18T09:21:24;31.17;;;17.65;;
28834;SDS011;15969;51.536;11.884;2022-12-18T09:23:51;34.72;;;19.08;;
28834;SDS011;15969;51.536;11.884;2022-12-18T09:26:18;36.58;;;20.00;;
28834;SDS011;15969;51.536;11.884;2022-12-18T09:28:45;35.33;;;19.90;;
28834;SDS011;15969;51.536;11.884;2022-12-18T09:31:11;36.43;;;20.63;;
28834;SDS011;15969;51.536;11.884;2022-12-18T09:33:37;42.20;;;21.77;;
28834;SDS011;15969;51.536;11.884;2022-12-18T09:36:04;40.50;;;21.70;;
28834;SDS011;15969;51.536;11.884;2022-12-18T09:38:31;37.15;;;20.58;;
28834;SDS011;15969;51.536;11.884;2022-12-18T09:40:59;42.03;;;20.90;;
28834;SDS011;15969;51.536;11.884;2022-12-18T09:46:06;35.80;;;20.50;;
28834;SDS011;15969;51.536;11.884;2022-12-18T09:48:36;38.83;;;20.70;;
28834;SDS011;15969;51.536;11.884;2022-12-18T09:51:17;36.05;;;20.73;;
28834;SDS011;15969;51.536;11.884;2022-12-18T09:53:53;38.58;;;20.92;;
28834;SDS011;15969;51.536;11.884;2022-12-18T09:56:23;38.33;;;20.48;;
28834;SDS011;15969;51.536;11.884;2022-12-18T09:58:57;31.85;;;20.02;;
28834;SDS011;15969;51.536;11.884;2022-12-18T10:01:24;36.72;;;20.15;;
28834;SDS011;15969;51.536;11.884;2022-12-18T10:03:52;36.25;;;21.02;;
28834;SDS011;15969;51.536;11.884;2022-12-18T10:06:24;35.45;;;20.80;;
28834;SDS011;15969;51.536;11.884;2022-12-18T10:11:56;32.72;;;21.48;;
28834;SDS011;15969;51.536;11.884;2022-12-18T10:14:50;35.10;;;22.33;;
28834;SDS011;15969;51.536;11.884;2022-12-18T10:17:38;41.47;;;23.58;;
28834;SDS011;15969;51.536;11.884;2022-12-18T10:20:16;39.90;;;23.20;;
28834;SDS011;15969;51.536;11.884;2022-12-18T10:22:53;42.17;;;23.92;;
28834;SDS011;15969;51.536;11.884;2022-12-18T10:28:20;40.50;;;23.70;;
28834;SDS011;15969;51.536;11.884;2022-12-18T10:30:48;42.13;;;24.70;;
28834;SDS011;15969;51.536;11.884;2022-12-18T10:33:16;40.83;;;24.37;;
28834;SDS011;15969;51.536;11.884;2022-12-18T10:35:43;46.83;;;26.15;;
28834;SDS011;15969;51.536;11.884;2022-12-18T10:43:32;43.13;;;25.50;;
28834;SDS011;15969;51.536;11.884;2022-12-18T10:48:35;47.83;;;25.70;;
28834;SDS011;15969;51.536;11.884;2022-12-18T10:51:04;43.25;;;25.88;;
28834;SDS011;15969;51.536;11.884;2022-12-18T10:53:31;51.92;;;27.25;;
28834;SDS011;15969;51.536;11.884;2022-12-18T10:55:59;44.58;;;26.23;;
28834;SDS011;15969;51.536;11.884;2022-12-18T10:58:33;44.88;;;25.25;;
28834;SDS011;15969;51.536;11.884;2022-12-18T11:06:16;42.53;;;26.00;;
28834;SDS011;15969;51.536;11.884;2022-12-18T11:08:58;47.78;;;26.98;;
28834;SDS011;15969;51.536;11.884;2022-12-18T11:11:27;42.08;;;24.63;;
28834;SDS011;15969;51.536;11.884;2022-12-18T11:16:24;38.92;;;25.58;;
28834;SDS011;15969;51.536;11.884;2022-12-18T11:18:50;44.33;;;26.00;;
28834;SDS011;15969;51.536;11.884;2022-12-18T11:21:16;41.00;;;25.93;;
28834;SDS011;15969;51.536;11.884;2022-12-18T11:23:49;43.50;;;26.67;;
28834;SDS011;15969;51.536;11.884;2022-12-18T11:26:16;43.92;;;27.80;;
28834;SDS011;15969;51.536;11.884;2022-12-18T11:28:49;45.40;;;26.60;;
28834;SDS011;15969;51.536;11.884;2022-12-18T11:31:21;45.13;;;25.60;;
28834;SDS011;15969;51.536;11.884;2022-12-18T11:36:38;51.63;;;27.70;;
28834;SDS011;15969;51.536;11.884;2022-12-18T11:39:20;45.63;;;27.48;;
28834;SDS011;15969;51.536;11.884;2022-12-18T11:42:00;43.67;;;26.58;;
28834;SDS011;15969;51.536;11.884;2022-12-18T11:44:52;38.20;;;24.85;;
28834;SDS011;15969;51.536;11.884;2022-12-18T11:47:57;42.45;;;25.65;;
28834;SDS011;15969;51.536;11.884;2022-12-18T11:50:20;44.40;;;26.95;;
28834;SDS011;15969;51.536;11.884;2022-12-18T11:52:49;46.17;;;26.10;;
28834;SDS011;15969;51.536;11.884;2022-12-18T11:55:27;42.77;;;26.07;;
28834;SDS011;15969;51.536;11.884;2022-12-18T11:58:04;45.47;;;26.77;;
28834;SDS011;15969;51.536;11.884;2022-12-18T12:06:35;42.78;;;26.40;;
28834;SDS011;15969;51.536;11.884;2022-12-18T12:09:16;36.35;;;25.00;;
28834;SDS011;15969;51.536;11.884;2022-12-18T12:11:55;39.22;;;27.00;;
28834;SDS011;15969;51.536;11.884;2022-12-18T12:22:50;40.00;;;26.52;;
28834;SDS011;15969;51.536;11.884;2022-12-18T12:28:14;42.50;;;25.38;;
28834;SDS011;15969;51.536;11.884;2022-12-18T12:30:55;38.85;;;25.98;;
28834;SDS011;15969;51.536;11.884;2022-12-18T12:33:52;39.70;;;25.45;;
28834;SDS011;15969;51.536;11.884;2022-12-18T12:39:21;42.75;;;25.40;;
28834;SDS011;15969;51.536;11.884;2022-12-18T12:41:51;41.65;;;27.42;;
28834;SDS011;15969;51.536;11.884;2022-12-18T12:44:40;39.80;;;25.27;;
28834;SDS011;15969;51.536;11.884;2022-12-18T12:47:33;38.63;;;25.98;;
28834;SDS011;15969;51.536;11.884;2022-12-18T12:49:59;44.50;;;26.27;;
28834;SDS011;15969;51.536;11.884;2022-12-18T12:52:37;44.55;;;25.23;;
28834;SDS011;15969;51.536;11.884;2022-12-18T12:55:12;41.05;;;25.58;;
28834;SDS011;15969;51.536;11.884;2022-12-18T12:57:53;38.72;;;25.90;;
28834;SDS011;15969;51.536;11.884;2022-12-18T13:00:35;40.00;;;25.93;;
28834;SDS011;15969;51.536;11.884;2022-12-18T13:03:42;35.55;;;23.05;;
28834;SDS011;15969;51.536;11.884;2022-12-18T13:07:41;31.13;;;20.40;;
28834;SDS011;15969;51.536;11.884;2022-12-18T13:12:51;28.43;;;18.83;;
28834;SDS011;15969;51.536;11.884;2022-12-18T13:15:25;30.40;;;20.83;;
28834;SDS011;15969;51.536;11.884;2022-12-18T13:20:40;26.57;;;19.13;;
28834;SDS011;15969;51.536;11.884;2022-12-18T13:28:49;21.13;;;12.93;;
28834;SDS011;15969;51.536;11.884;2022-12-18T13:36:47;11.80;;;9.50;;
28834;SDS011;15969;51.536;11.884;2022-12-18T13:41:39;14.73;;;9.83;;
28834;SDS011;15969;51.536;11.884;2022-12-18T13:44:11;12.63;;;10.10;;
28834;SDS011;15969;51.536;11.884;2022-12-18T13:46:46;15.73;;;10.13;;
28834;SDS011;15969;51.536;11.884;2022-12-18T13:49:22;14.30;;;10.47;;
28834;SDS011;15969;51.536;11.884;2022-12-18T13:52:00;16.77;;;11.00;;
28834;SDS011;15969;51.536;11.884;2022-12-18T13:54:32;18.27;;;12.23;;
28834;SDS011;15969;51.536;11.884;2022-12-18T13:57:05;15.43;;;11.63;;
28834;SDS011;15969;51.536;11.884;2022-12-18T13:59:49;18.10;;;12.40;;
28834;SDS011;15969;51.536;11.884;2022-12-18T14:02:16;17.43;;;12.80;;
28834;SDS011;15969;51.536;11.884;2022-12-18T14:04:48;18.30;;;12.60;;
28834;SDS011;15969;51.536;11.884;2022-12-18T14:07:15;17.60;;;12.53;;
28834;SDS011;15969;51.536;11.884;2022-12-18T14:12:26;15.57;;;12.27;;
28834;SDS011;15969;51.536;11.884;2022-12-18T14:15:27;20.10;;;14.13;;
28834;SDS011;15969;51.536;11.884;2022-12-18T14:18:19;20.30;;;12.87;;
28834;SDS011;15969;51.536;11.884;2022-12-18T14:21:13;19.77;;;14.07;;
28834;SDS011;15969;51.536;11.884;2022-12-18T14:23:48;22.00;;;13.70;;
28834;SDS011;15969;51.536;11.884;2022-12-18T14:26:24;20.20;;;13.93;;
28834;SDS011;15969;51.536;11.884;2022-12-18T14:28:54;22.00;;;14.23;;
28834;SDS011;15969;51.536;11.884;2022-12-18T14:31:27;21.85;;;14.02;;
28834;SDS011;15969;51.536;11.884;2022-12-18T14:33:55;21.73;;;14.40;;
28834;SDS011;15969;51.536;11.884;2022-12-18T14:36:22;20.87;;;13.83;;
28834;SDS011;15969;51.536;11.884;2022-12-18T14:38:57;20.97;;;13.70;;
28834;SDS011;15969;51.536;11.884;2022-12-18T14:41:24;21.38;;;13.98;;
28834;SDS011;15969;51.536;11.884;2022-12-18T14:43:52;24.38;;;14.27;;
28834;SDS011;15969;51.536;11.884;2022-12-18T14:46:27;19.95;;;14.48;;
28834;SDS011;15969;51.536;11.884;2022-12-18T14:49:05;20.13;;;13.00;;
28834;SDS011;15969;51.536;11.884;2022-12-18T14:51:49;22.70;;;13.82;;
28834;SDS011;15969;51.536;11.884;2022-12-18T14:54:20;24.63;;;14.98;;
28834;SDS011;15969;51.536;11.884;2022-12-18T14:56:48;21.73;;;14.50;;
28834;SDS011;15969;51.536;11.884;2022-12-18T14:59:24;22.67;;;14.63;;
28834;SDS011;15969;51.536;11.884;2022-12-18T15:02:10;23.35;;;15.13;;
28834;SDS011;15969;51.536;11.884;2022-12-18T15:04:39;22.23;;;14.27;;
28834;SDS011;15969;51.536;11.884;2022-12-18T15:10:32;23.52;;;14.60;;
28834;SDS011;15969;51.536;11.884;2022-12-18T15:12:33;21.05;;;13.85;;
28834;SDS011;15969;51.536;11.884;2022-12-18T15:15:00;22.25;;;15.68;;
28834;SDS011;15969;51.536;11.884;2022-12-18T15:17:26;21.80;;;14.68;;
28834;SDS011;15969;51.536;11.884;2022-12-18T15:20:03;21.20;;;13.93;;
28834;SDS011;15969;51.536;11.884;2022-12-18T15:22:35;21.92;;;14.45;;
28834;SDS011;15969;51.536;11.884;2022-12-18T15:25:02;21.10;;;15.15;;
28834;SDS011;15969;51.536;11.884;2022-12-18T15:27:50;24.17;;;14.65;;
28834;SDS011;15969;51.536;11.884;2022-12-18T15:30:18;19.57;;;13.83;;
28834;SDS011;15969;51.536;11.884;2022-12-18T15:32:47;24.77;;;15.00;;
28834;SDS011;15969;51.536;11.884;2022-12-18T15:35:15;25.58;;;15.90;;
28834;SDS011;15969;51.536;11.884;2022-12-18T15:37:51;24.65;;;14.98;;
28834;SDS011;15969;51.536;11.884;2022-12-18T15:40:21;28.25;;;15.27;;
28834;SDS011;15969;51.536;11.884;2022-12-18T15:42:50;22.42;;;14.82;;
28834;SDS011;15969;51.536;11.884;2022-12-18T15:45:36;25.58;;;15.80;;
28834;SDS011;15969;51.536;11.884;2022-12-18T15:48:02;22.03;;;14.20;;
28834;SDS011;15969;51.536;11.884;2022-12-18T15:50:37;26.10;;;15.90;;
28834;SDS011;15969;51.536;11.884;2022-12-18T15:53:02;24.87;;;16.03;;
28834;SDS011;15969;51.536;11.884;2022-12-18T15:55:28;24.27;;;15.23;;
28834;SDS011;15969;51.536;11.884;2022-12-18T15:58:12;24.02;;;14.50;;
28834;SDS011;15969;51.536;11.884;2022-12-18T16:00:38;25.97;;;15.60;;